Time;durP1;ratioP1;P1;durP2;ratioP2;P2;SDS_P1;SDS_P2;PMS_P1;PMS_P2;Temp;Humidity;BMP_temperature;BMP_pressure;BME280_temperature;BME280_humidity;BME280_pressure;Samples;Min_cycle;Max_cycle;Signal;HPM_P1;HPM_P2
2021/12/20 00:01:36;;;;;;;18.30;9.67;;;1.80;99.90;;;;;;5017366;28;20212;-42
2021/12/20 00:04:02;;;;;;;17.60;9.70;;;1.80;99.90;;;;;;5016932;28;20235;-40
2021/12/20 00:06:27;;;;;;;21.07;10.40;;;1.90;99.90;;;;;;5051151;28;20178;-42
2021/12/20 00:08:53;;;;;;;18.80;10.43;;;1.90;99.90;;;;;;5033995;28;20236;-40
2021/12/20 00:11:19;;;;;;;18.20;10.20;;;1.90;99.90;;;;;;5017082;28;20222;-42
2021/12/20 00:13:45;;;;;;;20.50;10.73;;;1.90;99.90;;;;;;5016880;28;20186;-42
2021/12/20 00:16:11;;;;;;;18.50;9.73;;;1.90;99.90;;;;;;5033719;28;20174;-41
2021/12/20 00:18:37;;;;;;;18.03;10.43;;;1.90;99.90;;;;;;5016624;28;20713;-42
2021/12/20 00:21:03;;;;;;;17.43;9.80;;;1.90;99.90;;;;;;5017199;28;20297;-41
2021/12/20 00:23:29;;;;;;;19.43;10.13;;;1.90;99.90;;;;;;5051277;28;20634;-44
2021/12/20 00:25:56;;;;;;;17.47;10.60;;;1.90;99.90;;;;;;5033588;28;20182;-41
2021/12/20 00:28:22;;;;;;;16.37;9.57;;;1.90;99.90;;;;;;5016930;28;20288;-41
2021/12/20 00:30:48;;;;;;;16.60;10.60;;;1.90;99.90;;;;;;5033258;28;20284;-45
2021/12/20 00:33:15;;;;;;;18.00;10.17;;;1.90;99.90;;;;;;5051159;28;20170;-42
2021/12/20 00:35:41;;;;;;;18.27;9.77;;;1.90;99.90;;;;;;5016547;28;20247;-41
2021/12/20 00:40:51;;;;;;;17.83;9.67;;;1.90;99.90;;;;;;5051376;28;20197;-40
2021/12/20 00:43:17;;;;;;;19.93;10.77;;;1.90;99.90;;;;;;5033399;28;20182;-40
2021/12/20 00:45:43;;;;;;;18.53;9.87;;;1.90;99.90;;;;;;5016580;28;20196;-43
2021/12/20 00:48:09;;;;;;;17.93;10.30;;;1.90;99.90;;;;;;5033301;28;20250;-44
2021/12/20 00:50:36;;;;;;;20.07;10.17;;;1.90;99.90;;;;;;5013187;28;20210;-42
2021/12/20 00:53:03;;;;;;;21.40;11.37;;;1.90;99.90;;;;;;5013579;28;20720;-40
2021/12/20 00:55:29;;;;;;;21.17;11.73;;;1.90;99.90;;;;;;5013501;28;20210;-40
2021/12/20 00:57:57;;;;;;;17.47;10.07;;;1.90;99.90;;;;;;5013399;28;20291;-42
2021/12/20 01:00:26;;;;;;;18.57;9.90;;;1.90;99.90;;;;;;5013265;28;20174;-42
2021/12/20 01:02:53;;;;;;;18.70;9.97;;;1.90;99.90;;;;;;5013392;28;20194;-41
2021/12/20 01:05:20;;;;;;;18.77;9.90;;;1.90;99.90;;;;;;5046146;28;20185;-42
2021/12/20 01:07:46;;;;;;;16.70;9.80;;;1.90;99.90;;;;;;5033300;28;20186;-38
2021/12/20 01:10:13;;;;;;;17.10;10.03;;;1.90;99.90;;;;;;5049223;28;20247;-42
2021/12/20 01:12:51;;;;;;;16.37;9.63;;;1.90;99.90;;;;;;5033095;28;20182;-42
2021/12/20 01:15:21;;;;;;;18.53;10.23;;;1.90;99.90;;;;;;5035976;28;20185;-44
2021/12/20 01:17:47;;;;;;;17.83;9.87;;;2.00;99.90;;;;;;5071420;28;20166;-42
2021/12/20 01:20:13;;;;;;;20.33;10.73;;;2.00;99.90;;;;;;5031637;28;20205;-42
2021/12/20 01:22:48;;;;;;;18.73;9.57;;;2.00;99.90;;;;;;5016407;28;20552;-41
2021/12/20 01:25:15;;;;;;;17.10;10.17;;;1.90;99.90;;;;;;5017758;28;20178;-43
2021/12/20 01:27:41;;;;;;;20.57;10.83;;;2.00;99.90;;;;;;5036645;28;20181;-42
2021/12/20 01:30:10;;;;;;;19.63;10.43;;;2.00;99.90;;;;;;5036654;28;20205;-42
2021/12/20 01:32:36;;;;;;;21.10;10.77;;;2.00;99.90;;;;;;5036543;28;20642;-42
2021/12/20 01:35:03;;;;;;;20.67;10.00;;;2.00;99.90;;;;;;5036198;28;20171;-40
2021/12/20 01:37:29;;;;;;;22.33;10.40;;;2.00;99.90;;;;;;5036600;28;20184;-42
2021/12/20 01:39:58;;;;;;;17.23;9.67;;;2.00;99.90;;;;;;5020054;28;20186;-41
2021/12/20 01:42:25;;;;;;;18.07;10.47;;;2.00;99.90;;;;;;5054080;28;20205;-38
2021/12/20 01:44:55;;;;;;;22.43;11.13;;;2.00;99.90;;;;;;5019641;28;20217;-41
2021/12/20 01:47:22;;;;;;;20.67;10.93;;;2.00;99.90;;;;;;5019981;28;20239;-41
2021/12/20 01:50:01;;;;;;;21.43;10.70;;;2.00;99.90;;;;;;5035851;28;20212;-39
2021/12/20 01:52:29;;;;;;;17.13;10.20;;;2.00;99.90;;;;;;5036011;28;20232;-41
2021/12/20 01:54:55;;;;;;;16.93;10.07;;;2.00;99.90;;;;;;5035839;28;20169;-41
2021/12/20 01:57:23;;;;;;;22.20;10.77;;;2.00;99.90;;;;;;5019682;28;20186;-40
2021/12/20 01:59:49;;;;;;;20.03;10.60;;;2.10;99.90;;;;;;5036326;28;20178;-41
2021/12/20 02:02:15;;;;;;;21.87;10.63;;;2.10;99.90;;;;;;5035470;28;20294;-42
2021/12/20 02:04:48;;;;;;;19.03;10.33;;;2.10;99.90;;;;;;5035729;28;20261;-41
2021/12/20 02:07:35;;;;;;;22.33;11.43;;;2.10;99.90;;;;;;5053662;28;20181;-41
2021/12/20 02:10:00;;;;;;;19.60;11.13;;;2.10;99.90;;;;;;5035539;28;20213;-41
2021/12/20 02:12:26;;;;;;;20.90;10.77;;;2.10;99.90;;;;;;5019279;28;20254;-41
2021/12/20 02:14:52;;;;;;;21.13;11.17;;;2.10;99.90;;;;;;5044665;28;20284;-41
2021/12/20 02:17:17;;;;;;;21.10;11.43;;;2.10;99.90;;;;;;5030264;28;20285;-40
2021/12/20 02:19:43;;;;;;;23.43;11.20;;;2.00;99.90;;;;;;5015675;28;20202;-41
2021/12/20 02:22:09;;;;;;;17.30;9.77;;;2.10;99.90;;;;;;5015692;28;20232;-41
2021/12/20 02:24:35;;;;;;;23.00;10.97;;;2.10;99.90;;;;;;5015671;28;20185;-40
2021/12/20 02:27:01;;;;;;;18.97;10.90;;;2.10;99.90;;;;;;5015602;28;20246;-41
2021/12/20 02:29:43;;;;;;;20.00;10.87;;;2.10;99.90;;;;;;5015584;28;20198;-39
2021/12/20 02:37:38;;;;;;;20.53;11.10;;;2.10;99.90;;;;;;5035322;28;20193;-41
2021/12/20 02:40:05;;;;;;;20.67;10.43;;;2.10;99.90;;;;;;5035497;28;20178;-41
2021/12/20 02:42:42;;;;;;;18.30;10.53;;;2.10;99.90;;;;;;5052665;28;20204;-43
2021/12/20 02:45:14;;;;;;;22.87;11.23;;;2.10;99.90;;;;;;5014987;28;20308;-42
2021/12/20 02:47:44;;;;;;;21.57;10.97;;;2.10;99.90;;;;;;5015627;28;20175;-41
2021/12/20 02:50:11;;;;;;;19.17;10.13;;;2.10;99.90;;;;;;5015290;28;20693;-41
2021/12/20 02:52:37;;;;;;;20.03;10.97;;;2.10;99.90;;;;;;4997016;28;20266;-41
2021/12/20 02:55:04;;;;;;;20.10;10.77;;;2.10;99.90;;;;;;5014830;28;20171;-40
2021/12/20 02:57:36;;;;;;;20.47;11.67;;;2.10;99.90;;;;;;5031724;28;20205;-42
2021/12/20 03:00:06;;;;;;;21.23;11.20;;;2.10;99.90;;;;;;5026135;28;20239;-41
2021/12/20 03:02:32;;;;;;;21.83;11.23;;;2.10;99.90;;;;;;5034858;28;20210;-42
2021/12/20 03:04:58;;;;;;;24.27;12.30;;;2.10;99.90;;;;;;5018239;28;20185;-42
2021/12/20 03:07:26;;;;;;;25.27;12.73;;;2.10;99.90;;;;;;5018246;28;20182;-39
2021/12/20 03:09:59;;;;;;;21.13;11.53;;;2.10;99.90;;;;;;5034599;28;20202;-41
2021/12/20 03:12:28;;;;;;;22.13;11.43;;;2.10;99.90;;;;;;5034109;28;20546;-38
2021/12/20 03:15:01;;;;;;;22.30;10.70;;;2.00;99.90;;;;;;5020118;28;20257;-41
2021/12/20 03:17:26;;;;;;;18.90;11.30;;;2.00;99.90;;;;;;5014923;28;20179;-38
2021/12/20 03:19:52;;;;;;;21.33;10.97;;;2.00;99.90;;;;;;5041930;28;20189;-42
2021/12/20 03:22:18;;;;;;;19.77;10.90;;;2.00;99.90;;;;;;5034691;28;20197;-41
2021/12/20 03:24:44;;;;;;;18.23;10.47;;;2.00;99.90;;;;;;5034265;28;20186;-43
2021/12/20 03:27:10;;;;;;;18.13;10.17;;;2.00;99.90;;;;;;5052385;28;20185;-41
2021/12/20 03:29:36;;;;;;;18.07;9.73;;;2.00;99.90;;;;;;5052336;28;20197;-41
2021/12/20 03:32:02;;;;;;;19.37;11.40;;;2.00;99.90;;;;;;5017976;28;20213;-41
2021/12/20 03:34:28;;;;;;;21.00;11.83;;;2.00;99.90;;;;;;5017266;28;20209;-41
2021/12/20 03:36:54;;;;;;;20.40;11.33;;;2.00;99.90;;;;;;5017717;28;20209;-41
2021/12/20 03:39:20;;;;;;;17.70;9.97;;;2.00;99.90;;;;;;5017660;28;20178;-42
2021/12/20 03:41:46;;;;;;;19.87;10.80;;;2.10;99.90;;;;;;5034178;28;20232;-42
2021/12/20 03:44:12;;;;;;;17.47;10.27;;;2.10;99.90;;;;;;5034349;28;20213;-39
2021/12/20 03:46:38;;;;;;;18.83;10.07;;;2.10;99.90;;;;;;5034339;28;20186;-42
2021/12/20 03:49:05;;;;;;;20.40;11.40;;;2.10;99.90;;;;;;5016115;28;20182;-42
2021/12/20 03:51:32;;;;;;;17.23;9.90;;;2.10;99.90;;;;;;5034098;28;20213;-41
2021/12/20 03:53:57;;;;;;;19.73;10.03;;;2.10;99.90;;;;;;5033952;28;20178;-41
2021/12/20 03:56:24;;;;;;;19.20;10.20;;;2.10;99.90;;;;;;5008574;28;20183;-39
2021/12/20 03:58:50;;;;;;;19.13;10.10;;;2.10;99.90;;;;;;5014437;28;20179;-41
2021/12/20 04:01:16;;;;;;;20.27;11.27;;;2.10;99.90;;;;;;5035395;28;20212;-41
2021/12/20 04:03:43;;;;;;;22.63;11.97;;;2.10;99.90;;;;;;5017322;28;20280;-42
2021/12/20 04:06:13;;;;;;;22.57;12.00;;;2.10;99.90;;;;;;5051406;28;20170;-42
2021/12/20 04:08:40;;;;;;;23.37;12.23;;;2.10;99.90;;;;;;5017185;28;20188;-41
2021/12/20 04:11:07;;;;;;;19.13;11.57;;;2.10;99.90;;;;;;5017241;28;20217;-41
2021/12/20 04:13:32;;;;;;;20.10;12.10;;;2.10;99.90;;;;;;5033957;28;20188;-41
2021/12/20 04:15:59;;;;;;;21.00;11.60;;;2.00;99.90;;;;;;5051245;28;20186;-42
2021/12/20 04:18:26;;;;;;;18.23;10.60;;;2.10;99.90;;;;;;5016905;28;20217;-42
2021/12/20 04:20:53;;;;;;;21.40;11.10;;;2.00;99.90;;;;;;5017233;28;20197;-41
2021/12/20 04:23:18;;;;;;;20.33;11.53;;;2.00;99.90;;;;;;5033598;28;20277;-41
2021/12/20 04:25:44;;;;;;;21.97;12.00;;;2.00;99.90;;;;;;5016353;28;20621;-41
2021/12/20 04:28:10;;;;;;;19.20;10.87;;;2.00;99.90;;;;;;5051254;28;20227;-41
2021/12/20 04:30:36;;;;;;;18.20;10.17;;;2.00;99.90;;;;;;5033262;28;20218;-41
2021/12/20 04:33:03;;;;;;;24.13;11.13;;;2.00;99.90;;;;;;5033633;28;20185;-39
2021/12/20 04:35:29;;;;;;;17.80;9.90;;;2.00;99.90;;;;;;5017008;28;20182;-42
2021/12/20 04:37:58;;;;;;;19.33;10.60;;;2.00;99.90;;;;;;5033398;28;20220;-41
2021/12/20 04:40:24;;;;;;;22.10;11.63;;;2.00;99.90;;;;;;5033466;28;20178;-41
2021/12/20 04:42:54;;;;;;;23.63;11.83;;;2.00;99.90;;;;;;5033628;28;20181;-41
2021/12/20 04:45:20;;;;;;;20.80;11.27;;;2.00;99.90;;;;;;5032882;28;20194;-42
2021/12/20 04:47:46;;;;;;;19.80;10.67;;;2.00;99.90;;;;;;5040731;28;20181;-39
2021/12/20 04:50:12;;;;;;;18.67;10.73;;;2.00;99.90;;;;;;5040957;28;20267;-41
2021/12/20 04:52:40;;;;;;;18.53;11.03;;;2.00;99.90;;;;;;5016735;28;20182;-41
2021/12/20 04:55:08;;;;;;;20.53;11.17;;;2.00;99.90;;;;;;5013275;28;20221;-41
2021/12/20 04:57:34;;;;;;;20.47;11.00;;;2.00;99.90;;;;;;4997158;28;20178;-40
2021/12/20 05:00:00;;;;;;;19.43;10.67;;;2.00;99.90;;;;;;5015903;28;20206;-42
2021/12/20 05:02:26;;;;;;;23.83;13.77;;;2.00;99.90;;;;;;5055605;28;20244;-41
2021/12/20 05:04:52;;;;;;;23.77;12.80;;;2.00;99.90;;;;;;5037720;28;20240;-41
2021/12/20 05:07:17;;;;;;;22.17;12.57;;;2.00;99.90;;;;;;5015552;28;20213;-41
2021/12/20 05:09:43;;;;;;;21.47;11.90;;;2.00;99.90;;;;;;5037088;28;20197;-42
2021/12/20 05:12:14;;;;;;;18.83;10.73;;;2.00;99.90;;;;;;5038674;28;20542;-41
2021/12/20 05:14:41;;;;;;;20.73;12.53;;;2.00;99.90;;;;;;5085978;22;20182;-37
2021/12/20 05:17:09;;;;;;;19.77;11.30;;;2.00;99.90;;;;;;5009889;28;20203;-34
2021/12/20 05:19:35;;;;;;;18.37;10.90;;;2.00;99.90;;;;;;5010102;28;20179;-34
2021/12/20 05:22:01;;;;;;;21.57;11.60;;;2.00;99.90;;;;;;4979956;28;20183;-33
2021/12/20 05:24:27;;;;;;;22.70;12.20;;;2.00;99.90;;;;;;4995682;28;20203;-34
2021/12/20 05:26:53;;;;;;;21.93;12.00;;;2.00;99.90;;;;;;5014590;28;20187;-33
2021/12/20 05:29:18;;;;;;;24.40;12.67;;;2.10;99.90;;;;;;5014659;28;20180;-34
2021/12/20 05:31:44;;;;;;;23.73;12.60;;;2.00;99.90;;;;;;4997275;28;20175;-33
2021/12/20 05:34:11;;;;;;;24.23;12.50;;;2.00;99.90;;;;;;4993092;28;20188;-33
2021/12/20 05:36:37;;;;;;;21.27;12.00;;;2.00;99.90;;;;;;4977594;28;20198;-33
2021/12/20 05:39:03;;;;;;;23.43;12.73;;;2.00;99.90;;;;;;4961518;28;20180;-33
2021/12/20 05:41:29;;;;;;;24.73;12.43;;;2.00;99.90;;;;;;4975729;28;20187;-34
2021/12/20 05:43:55;;;;;;;22.70;11.60;;;2.00;99.90;;;;;;4993178;28;20191;-33
2021/12/20 05:46:21;;;;;;;23.03;12.03;;;2.00;99.90;;;;;;4984013;28;20195;-34
2021/12/20 05:48:47;;;;;;;26.40;13.37;;;2.00;99.90;;;;;;4963518;28;20191;-34
2021/12/20 05:51:13;;;;;;;24.83;13.43;;;2.10;99.90;;;;;;4986556;28;20202;-33
2021/12/20 05:53:39;;;;;;;21.90;11.93;;;2.00;99.90;;;;;;4985337;28;20176;-34
2021/12/20 05:56:05;;;;;;;23.20;12.53;;;2.00;99.90;;;;;;4979562;28;20257;-34
2021/12/20 05:58:31;;;;;;;22.53;12.77;;;2.00;99.90;;;;;;4989103;28;20176;-33
2021/12/20 06:00:57;;;;;;;23.43;12.47;;;2.00;99.90;;;;;;4987458;28;20187;-33
2021/12/20 06:03:23;;;;;;;23.90;12.43;;;2.00;99.90;;;;;;4988734;28;20202;-34
2021/12/20 06:05:48;;;;;;;23.13;12.17;;;2.00;99.90;;;;;;4981914;28;20215;-33
2021/12/20 06:08:14;;;;;;;22.50;12.30;;;2.00;99.90;;;;;;4996266;28;20186;-34
2021/12/20 06:10:40;;;;;;;21.80;11.73;;;2.00;99.90;;;;;;5004940;28;20631;-34
2021/12/20 06:13:06;;;;;;;22.53;11.60;;;2.00;99.90;;;;;;4994898;28;20176;-33
2021/12/20 06:15:32;;;;;;;26.17;13.33;;;2.00;99.90;;;;;;4994878;28;20238;-34
2021/12/20 06:17:58;;;;;;;29.23;14.27;;;2.00;99.90;;;;;;4960614;28;20184;-33
2021/12/20 06:20:25;;;;;;;24.57;13.40;;;2.00;99.90;;;;;;4960841;28;20184;-33
2021/12/20 06:22:51;;;;;;;22.10;12.47;;;2.00;99.90;;;;;;4976812;28;20180;-33
2021/12/20 06:25:18;;;;;;;27.33;12.40;;;2.00;99.90;;;;;;4960313;28;20203;-33
2021/12/20 06:27:44;;;;;;;25.10;12.30;;;2.00;99.90;;;;;;4976799;28;20251;-33
2021/12/20 06:30:11;;;;;;;23.30;12.63;;;2.00;99.90;;;;;;4994011;28;20255;-35
2021/12/20 06:32:39;;;;;;;20.50;11.97;;;2.00;99.90;;;;;;4960599;28;20179;-34
2021/12/20 06:35:05;;;;;;;22.83;11.10;;;2.00;99.90;;;;;;4960335;28;20243;-34
2021/12/20 06:37:32;;;;;;;23.47;11.67;;;2.00;99.90;;;;;;4976589;28;20188;-33
2021/12/20 06:39:58;;;;;;;24.07;13.73;;;2.00;99.90;;;;;;4976468;28;20262;-32
2021/12/20 06:42:25;;;;;;;29.10;15.03;;;2.10;99.90;;;;;;4992470;28;20188;-34
2021/12/20 06:44:51;;;;;;;27.00;13.93;;;2.10;99.90;;;;;;4973555;28;20199;-34
2021/12/20 06:47:17;;;;;;;27.13;14.23;;;2.10;99.90;;;;;;4979697;28;20184;-33
2021/12/20 06:49:43;;;;;;;35.70;15.33;;;2.10;99.90;;;;;;5013312;28;20214;-34
2021/12/20 06:52:10;;;;;;;25.80;13.47;;;2.10;99.90;;;;;;4979387;28;20180;-33
2021/12/20 06:54:36;;;;;;;26.97;13.37;;;2.10;99.90;;;;;;5011593;28;20183;-33
2021/12/20 06:57:02;;;;;;;23.80;13.03;;;2.10;99.90;;;;;;4979254;28;20183;-34
2021/12/20 06:59:28;;;;;;;21.37;11.90;;;2.10;99.90;;;;;;5012084;28;20278;-34
2021/12/20 07:01:54;;;;;;;20.97;11.90;;;2.10;99.90;;;;;;4995603;28;20254;-34
2021/12/20 07:04:20;;;;;;;23.77;13.63;;;2.10;99.90;;;;;;4995688;28;20174;-34
2021/12/20 07:06:46;;;;;;;23.97;12.73;;;2.10;99.90;;;;;;5011466;28;20568;-34
2021/12/20 07:09:12;;;;;;;20.80;13.43;;;2.10;99.90;;;;;;4978985;28;20182;-33
2021/12/20 07:11:40;;;;;;;22.57;13.10;;;2.10;99.90;;;;;;4995372;28;20211;-34
2021/12/20 07:14:07;;;;;;;24.20;12.97;;;2.10;99.90;;;;;;4999758;28;20648;-34
2021/12/20 07:16:34;;;;;;;20.60;12.43;;;2.10;99.90;;;;;;4994933;28;20219;-34
2021/12/20 07:19:01;;;;;;;23.17;12.03;;;2.10;99.90;;;;;;4995179;28;20199;-33
2021/12/20 07:21:27;;;;;;;23.07;13.23;;;2.10;99.90;;;;;;4994905;28;20704;-35
2021/12/20 07:23:53;;;;;;;22.13;12.50;;;2.10;99.90;;;;;;4977940;28;20287;-33
2021/12/20 07:26:19;;;;;;;25.07;13.00;;;2.10;99.90;;;;;;4980136;28;20211;-35
2021/12/20 07:28:45;;;;;;;26.70;13.87;;;2.10;99.90;;;;;;4980539;28;20233;-34
2021/12/20 07:31:13;;;;;;;23.93;13.07;;;2.00;99.90;;;;;;4980568;28;20206;-34
2021/12/20 07:33:40;;;;;;;22.17;12.07;;;2.00;99.90;;;;;;5013459;28;20175;-34
2021/12/20 07:36:06;;;;;;;20.93;11.97;;;2.00;99.90;;;;;;4994481;28;20199;-35
2021/12/20 07:38:33;;;;;;;25.87;12.30;;;2.00;99.90;;;;;;4978676;28;20210;-35
2021/12/20 07:41:00;;;;;;;24.30;12.50;;;2.00;99.90;;;;;;4994714;28;20214;-35
2021/12/20 07:43:26;;;;;;;24.40;12.33;;;2.00;99.90;;;;;;4995203;28;20190;-35
2021/12/20 07:45:53;;;;;;;25.70;13.07;;;2.00;99.90;;;;;;4994783;28;20207;-34
2021/12/20 07:48:20;;;;;;;24.93;13.37;;;2.00;99.90;;;;;;4978673;28;20179;-35
2021/12/20 07:50:48;;;;;;;22.07;11.60;;;2.00;99.90;;;;;;5010753;28;20215;-34
2021/12/20 07:53:15;;;;;;;21.63;12.33;;;2.00;99.90;;;;;;4978263;28;20175;-34
2021/12/20 07:55:41;;;;;;;24.60;12.37;;;2.00;99.90;;;;;;4978167;28;20198;-35
2021/12/20 07:58:07;;;;;;;25.63;11.63;;;2.00;99.90;;;;;;4994675;28;20175;-34
2021/12/20 08:00:33;;;;;;;21.93;12.07;;;2.10;99.90;;;;;;4994883;28;20215;-34
2021/12/20 08:02:59;;;;;;;20.63;11.47;;;2.10;99.90;;;;;;5012625;28;20214;-34
2021/12/20 08:05:27;;;;;;;21.43;11.50;;;2.10;99.90;;;;;;5011417;28;20231;-35
2021/12/20 08:07:54;;;;;;;23.27;12.47;;;2.10;99.90;;;;;;4978156;28;20257;-34
2021/12/20 08:10:23;;;;;;;22.43;11.27;;;2.10;99.90;;;;;;4978054;28;20305;-35
2021/12/20 08:12:50;;;;;;;20.63;11.70;;;2.10;99.90;;;;;;4978372;28;20217;-34
2021/12/20 08:15:17;;;;;;;22.77;11.67;;;2.10;99.90;;;;;;4994067;28;20576;-34
2021/12/20 08:17:43;;;;;;;24.77;11.70;;;2.10;99.90;;;;;;4994413;28;20167;-34
2021/12/20 08:20:11;;;;;;;28.23;13.73;;;2.10;99.90;;;;;;4981031;28;20261;-34
2021/12/20 08:22:39;;;;;;;27.53;13.60;;;2.20;99.90;;;;;;4979777;28;20182;-34
2021/12/20 08:25:06;;;;;;;25.93;12.90;;;2.10;99.90;;;;;;4993999;28;20202;-34
2021/12/20 08:27:32;;;;;;;25.23;12.20;;;2.20;99.90;;;;;;5011840;28;20187;-34
2021/12/20 08:29:58;;;;;;;26.20;12.67;;;2.20;99.90;;;;;;4977639;28;20207;-35
2021/12/20 08:32:25;;;;;;;22.20;12.23;;;2.20;99.90;;;;;;4995800;28;20171;-35
2021/12/20 08:34:51;;;;;;;22.73;12.40;;;2.20;99.90;;;;;;5017545;28;20175;-34
2021/12/20 08:37:16;;;;;;;22.80;12.53;;;2.30;99.90;;;;;;5000233;28;20212;-35
2021/12/20 08:39:42;;;;;;;23.50;12.37;;;2.30;99.90;;;;;;5000652;28;20233;-34
2021/12/20 08:42:08;;;;;;;20.10;12.20;;;2.30;99.90;;;;;;5000422;28;20187;-34
2021/12/20 08:44:37;;;;;;;25.13;12.47;;;2.30;99.90;;;;;;4998065;28;20188;-35
2021/12/20 08:47:05;;;;;;;22.23;12.47;;;2.30;99.90;;;;;;4989192;28;20183;-35
2021/12/20 08:49:31;;;;;;;23.70;12.23;;;2.40;99.90;;;;;;5006696;28;20282;-35
2021/12/20 08:52:00;;;;;;;25.37;12.77;;;2.40;99.90;;;;;;4993301;28;20294;-35
2021/12/20 08:54:29;;;;;;;23.63;12.23;;;2.40;99.90;;;;;;4981767;28;20186;-34
2021/12/20 08:56:56;;;;;;;21.57;12.10;;;2.40;99.90;;;;;;5001693;28;20253;-34
2021/12/20 08:59:23;;;;;;;24.60;12.43;;;2.40;99.90;;;;;;4983910;28;20568;-35
2021/12/20 09:01:50;;;;;;;26.63;14.40;;;2.50;99.90;;;;;;4979522;28;20556;-35
2021/12/20 09:04:25;;;;;;;32.43;16.07;;;2.50;99.90;;;;;;4982000;28;20176;-35
2021/12/20 09:06:51;;;;;;;27.03;15.10;;;2.40;99.90;;;;;;4981625;28;20206;-34
2021/12/20 09:09:17;;;;;;;27.57;13.83;;;2.50;99.90;;;;;;4987484;28;20179;-34
2021/12/20 09:11:44;;;;;;;25.23;12.87;;;2.50;99.90;;;;;;4991187;28;20205;-35
2021/12/20 09:14:11;;;;;;;24.17;12.33;;;2.50;99.90;;;;;;4995622;28;20182;-35
2021/12/20 09:16:41;;;;;;;28.57;14.53;;;2.60;99.90;;;;;;5007103;28;20212;-35
2021/12/20 09:19:08;;;;;;;25.93;13.67;;;2.60;99.90;;;;;;4973042;28;20649;-35
2021/12/20 09:21:34;;;;;;;24.37;13.93;;;2.60;99.90;;;;;;4989317;28;20181;-35
2021/12/20 09:24:04;;;;;;;30.80;14.73;;;2.60;99.90;;;;;;4989220;28;20270;-35
2021/12/20 09:26:30;;;;;;;25.17;14.50;;;2.60;99.90;;;;;;4990348;28;20199;-35
2021/12/20 09:28:56;;;;;;;25.40;14.20;;;2.70;99.90;;;;;;4989924;28;20191;-35
2021/12/20 09:31:22;;;;;;;25.90;14.23;;;2.70;99.90;;;;;;4997862;28;20200;-35
2021/12/20 09:33:48;;;;;;;26.30;14.67;;;2.80;99.90;;;;;;4988404;28;20214;-35
2021/12/20 09:36:14;;;;;;;26.47;14.20;;;2.80;99.90;;;;;;4988460;28;20282;-34
2021/12/20 09:38:40;;;;;;;24.73;14.10;;;2.80;99.90;;;;;;5006634;28;20178;-35
2021/12/20 09:43:35;;;;;;;29.17;14.90;;;2.90;99.90;;;;;;5011632;28;20194;-35
2021/12/20 09:46:01;;;;;;;30.67;16.50;;;2.90;99.90;;;;;;4984215;28;20286;-35
2021/12/20 09:48:27;;;;;;;29.03;15.87;;;3.00;99.90;;;;;;4993382;28;20271;-35
2021/12/20 09:50:53;;;;;;;26.13;15.47;;;3.00;99.90;;;;;;4977603;28;20885;-35
2021/12/20 09:53:19;;;;;;;24.50;13.97;;;3.00;99.90;;;;;;4987596;28;20190;-34
2021/12/20 09:55:46;;;;;;;23.13;14.13;;;2.90;99.90;;;;;;4978331;28;20207;-35
2021/12/20 09:58:13;;;;;;;25.43;13.93;;;2.90;99.90;;;;;;4990163;28;20206;-35
2021/12/20 10:00:40;;;;;;;26.87;14.50;;;2.90;99.90;;;;;;4978784;28;20179;-35
2021/12/20 10:03:06;;;;;;;23.67;13.63;;;2.90;99.90;;;;;;4994950;28;20187;-35
2021/12/20 10:05:33;;;;;;;25.80;14.47;;;3.00;99.90;;;;;;4979890;28;20207;-36
2021/12/20 10:08:08;;;;;;;25.97;14.40;;;3.00;99.90;;;;;;4977824;28;20270;-34
2021/12/20 10:10:37;;;;;;;29.27;14.07;;;3.10;99.90;;;;;;4995130;28;20250;-34
2021/12/20 10:13:03;;;;;;;25.20;14.13;;;3.10;99.90;;;;;;4984607;28;20218;-39
2021/12/20 10:15:39;;;;;;;25.50;14.30;;;3.20;99.90;;;;;;4987659;28;20281;-37
2021/12/20 10:18:12;;;;;;;24.93;14.67;;;3.20;99.90;;;;;;5003089;28;20182;-36
2021/12/20 10:20:38;;;;;;;26.43;14.03;;;3.20;99.90;;;;;;4985386;28;20206;-36
2021/12/20 10:23:24;;;;;;;27.93;15.17;;;3.20;99.90;;;;;;4989024;28;20190;-37
2021/12/20 10:26:00;;;;;;;28.07;14.80;;;3.20;99.90;;;;;;4976277;28;20226;-36
2021/12/20 10:28:34;;;;;;;23.63;13.70;;;3.20;99.90;;;;;;5000254;28;20186;-36
2021/12/20 10:31:06;;;;;;;27.37;14.33;;;3.20;99.90;;;;;;4973720;28;20207;-35
2021/12/20 10:33:33;;;;;;;24.80;14.70;;;3.20;99.90;;;;;;4986361;28;20179;-35
2021/12/20 10:36:05;;;;;;;25.20;14.47;;;3.20;99.90;;;;;;4993087;28;20198;-34
2021/12/20 10:38:38;;;;;;;24.07;14.50;;;3.30;99.90;;;;;;4986709;28;20262;-36
2021/12/20 10:41:07;;;;;;;27.43;15.23;;;3.30;99.90;;;;;;4974672;28;20270;-45
2021/12/20 10:43:40;;;;;;;27.40;16.10;;;3.30;99.90;;;;;;4982551;28;20277;-35
2021/12/20 10:46:20;;;;;;;33.77;19.90;;;3.10;99.90;;;;;;5015425;28;20552;-38
2021/12/20 10:48:50;;;;;;;28.67;16.00;;;3.10;99.90;;;;;;5015591;28;20229;-36
2021/12/20 10:51:29;;;;;;;31.40;17.60;;;3.10;99.90;;;;;;5017297;28;20671;-42
2021/12/20 10:54:00;;;;;;;27.53;16.13;;;3.10;99.90;;;;;;4979784;28;20179;-38
2021/12/20 10:56:27;;;;;;;29.07;16.03;;;3.10;99.90;;;;;;4979728;28;20214;-37
2021/12/20 10:58:55;;;;;;;29.27;17.50;;;3.20;99.90;;;;;;4979729;28;20222;-39
2021/12/20 11:04:14;;;;;;;24.67;15.10;;;3.30;99.90;;;;;;5014116;28;20175;-40
2021/12/20 11:09:20;;;;;;;26.53;14.50;;;3.40;99.90;;;;;;4995582;28;20191;-39
2021/12/20 11:11:52;;;;;;;24.03;14.50;;;3.50;99.90;;;;;;4995747;28;20292;-36
2021/12/20 11:14:20;;;;;;;23.57;13.70;;;3.50;99.90;;;;;;4979676;28;20183;-39
2021/12/20 11:16:49;;;;;;;23.57;13.83;;;3.40;99.90;;;;;;5078052;22;20231;-32
2021/12/20 11:19:18;;;;;;;23.13;13.53;;;3.40;99.90;;;;;;5010970;28;20223;-32
2021/12/20 11:22:22;;;;;;;20.03;12.63;;;3.50;99.90;;;;;;5011879;28;20242;-32
2021/12/20 11:24:55;;;;;;;21.73;12.50;;;3.60;99.90;;;;;;4983904;28;20647;-33
2021/12/20 11:27:30;;;;;;;25.97;13.90;;;3.70;99.90;;;;;;5027530;28;20576;-32
2021/12/20 11:29:57;;;;;;;22.17;13.33;;;3.70;99.90;;;;;;5021138;28;20213;-32
2021/12/20 11:32:27;;;;;;;23.77;14.20;;;3.80;99.90;;;;;;5004649;28;20231;-32
2021/12/20 11:34:54;;;;;;;22.40;13.70;;;3.90;99.90;;;;;;5015533;28;20183;-32
2021/12/20 11:37:24;;;;;;;23.73;13.90;;;4.00;99.90;;;;;;5011467;28;20207;-33
2021/12/20 11:39:50;;;;;;;24.80;14.17;;;4.00;99.90;;;;;;5011200;28;20175;-32
2021/12/20 11:42:17;;;;;;;24.70;14.47;;;4.10;99.90;;;;;;5011087;28;20188;-32
2021/12/20 11:44:45;;;;;;;23.27;13.77;;;4.10;99.90;;;;;;4994719;28;20230;-30
2021/12/20 11:47:33;;;;;;;22.60;13.93;;;4.10;99.90;;;;;;5044218;28;20225;-32
2021/12/20 11:50:06;;;;;;;26.73;14.17;;;4.10;99.90;;;;;;5010981;28;20194;-31
2021/12/20 11:52:37;;;;;;;22.60;14.17;;;4.20;99.90;;;;;;5010784;28;20591;-32
2021/12/20 11:55:21;;;;;;;22.63;13.50;;;4.10;99.90;;;;;;5027438;28;20182;-32
2021/12/20 11:58:01;;;;;;;24.97;14.60;;;4.20;99.90;;;;;;5027409;28;20208;-32
2021/12/20 12:00:36;;;;;;;27.17;14.97;;;4.10;99.90;;;;;;5010881;28;20178;-33
2021/12/20 12:03:14;;;;;;;26.23;15.50;;;4.10;99.90;;;;;;5010676;28;20190;-33
2021/12/20 12:05:54;;;;;;;24.97;13.87;;;4.10;99.90;;;;;;5026799;28;20240;-34
2021/12/20 12:08:23;;;;;;;27.13;15.20;;;4.10;99.90;;;;;;5026746;28;20182;-33
2021/12/20 12:10:51;;;;;;;27.17;14.83;;;4.20;99.90;;;;;;5010748;28;20664;-32
2021/12/20 12:13:18;;;;;;;26.13;14.87;;;4.30;99.90;;;;;;5027064;28;20219;-32
2021/12/20 12:16:26;;;;;;;24.63;14.40;;;4.30;99.90;;;;;;5043570;28;20207;-32
2021/12/20 12:18:53;;;;;;;23.37;13.97;;;4.30;99.90;;;;;;5012088;28;20184;-32
2021/12/20 12:21:36;;;;;;;22.20;13.67;;;4.40;99.90;;;;;;5028936;28;20192;-32
2021/12/20 12:24:04;;;;;;;27.77;15.87;;;4.50;99.90;;;;;;5046875;28;20217;-32
2021/12/20 12:26:33;;;;;;;25.53;15.87;;;4.60;99.90;;;;;;5046766;28;20287;-32
2021/12/20 12:29:00;;;;;;;21.17;12.20;;;4.70;99.90;;;;;;5046974;28;20184;-32
2021/12/20 12:31:41;;;;;;;22.40;13.60;;;4.80;99.90;;;;;;5046813;28;20206;-32
2021/12/20 12:34:08;;;;;;;19.33;12.13;;;5.00;99.90;;;;;;5046743;28;20215;-32
2021/12/20 12:36:42;;;;;;;18.57;11.40;;;5.10;99.90;;;;;;5046215;28;20262;-32
2021/12/20 12:39:10;;;;;;;19.80;12.13;;;5.20;99.90;;;;;;5046836;28;20182;-32
2021/12/20 12:41:46;;;;;;;17.60;10.40;;;5.30;99.90;;;;;;5046824;28;20269;-33
2021/12/20 12:44:24;;;;;;;18.80;12.13;;;5.60;99.90;;;;;;5021965;28;20201;-32
2021/12/20 12:46:54;;;;;;;18.83;12.30;;;5.70;99.90;;;;;;5035429;28;20229;-32
2021/12/20 12:49:22;;;;;;;18.80;12.27;;;5.90;99.90;;;;;;4997765;28;20262;-32
2021/12/20 12:51:52;;;;;;;16.37;10.33;;;6.00;99.90;;;;;;5042226;28;20268;-33
2021/12/20 12:54:33;;;;;;;15.77;9.00;;;6.10;99.90;;;;;;5010413;28;20182;-32
2021/12/20 12:57:11;;;;;;;14.80;9.47;;;6.30;99.90;;;;;;5042923;28;20244;-32
2021/12/20 12:59:56;;;;;;;16.20;10.33;;;6.40;99.90;;;;;;5046705;28;20231;-33